Terminal Aerodrome Forecast
Issued by NWS Birmingham, AL

Home | Current Version | Previous Version | Text Only | Print | Product List | Glossary On
Versions: 1 2 3 4 5 6 7 8 9 10 11 12 13 14 15 16 17
000
FTUS44 KBMX 012300
TAFBHM
TAF
KBHM 012335Z 0200/0224 13004KT P6SM FEW070 SCT100
     FM021500 19007KT P6SM SCT040 SCT130=

USA.gov is the U.S. government's official web portal to all federal, state and local government web resources and services.